Chickamauga Observed Data For Previous 48 Hours

Caption
Day and Hour Reservoir Elevation (behind dam)* Tailwater Elevation (below dam)* Average Hourly Discharge*
9/20/2018 2 AM EDT 681.50 633.49 13,371
9/20/2018 3 AM EDT 681.52 633.34 13,380
9/20/2018 4 AM EDT 681.63 633.29 13,404
9/20/2018 5 AM EDT 681.59 633.15 13,380
9/20/2018 6 AM EDT 681.50 633.02 13,312
9/20/2018 7 AM EDT 681.47 632.97 13,339
9/20/2018 8 AM EDT 681.41 633.45 13,816
9/20/2018 9 AM EDT 681.21 637.24 44,195
9/20/2018 10 AM EDT 681.10 637.52 46,875
9/20/2018 11 AM EDT 681.22 637.70 46,895
9/20/2018 12 PM EDT 681.27 637.82 46,858
9/20/2018 1 PM EDT 681.32 637.90 46,936
9/20/2018 2 PM EDT 681.41 637.98 46,889
9/20/2018 3 PM EDT 681.41 638.04 46,926
9/20/2018 4 PM EDT 681.38 638.11 46,823
9/20/2018 5 PM EDT 681.39 638.16 46,846
9/20/2018 6 PM EDT 681.39 638.25 46,763
9/20/2018 7 PM EDT 681.39 638.34 46,920
9/20/2018 8 PM EDT 681.42 638.36 46,918
9/20/2018 9 PM EDT 681.44 638.36 46,779
9/20/2018 10 PM EDT 681.44 638.39 47,039
9/20/2018 11 PM EDT 681.45 638.39 46,839
9/21/2018 12 AM EDT 681.47 638.39 47,039
9/21/2018 1 AM EDT 681.48 638.37 46,905
9/21/2018 2 AM EDT 681.69 636.31 27,110
9/21/2018 3 AM EDT 681.70 635.88 26,584
9/21/2018 4 AM EDT 681.62 635.56 26,648
9/21/2018 5 AM EDT 681.45 635.37 26,363
9/21/2018 6 AM EDT 681.34 635.24 26,394
9/21/2018 7 AM EDT 681.30 635.18 26,423
9/21/2018 8 AM EDT 681.08 635.93 27,666
9/21/2018 9 AM EDT 681.16 637.54 46,867
9/21/2018 10 AM EDT 681.08 637.77 46,829
9/21/2018 11 AM EDT 681.10 637.84 46,609
9/21/2018 12 PM EDT 681.15 637.93 46,677
9/21/2018 1 PM EDT 681.11 637.97 46,827
9/21/2018 2 PM EDT 681.18 638.04 46,809
9/21/2018 3 PM EDT 681.23 638.08 46,719
9/21/2018 4 PM EDT 681.21 638.17 46,802
9/21/2018 5 PM EDT 681.18 638.22 46,855
9/21/2018 6 PM EDT 681.20 638.31 46,858
9/21/2018 7 PM EDT 681.23 638.37 46,751
9/21/2018 8 PM EDT 681.21 638.44 46,880
9/21/2018 9 PM EDT 681.24 638.45 46,801
9/21/2018 10 PM EDT 681.25 638.49 46,792
9/21/2018 11 PM EDT 681.27 638.44 46,802
9/22/2018 12 AM EDT 681.48 634.93 14,571
9/22/2018 1 AM EDT 681.55 634.27 13,536
9/22/2018 2 AM EDT 681.48 633.87 13,553
9/22/2018 3 AM EDT 681.43 633.66 13,441
9/22/2018 4 AM EDT 681.33 633.56 13,291
9/22/2018 5 AM EDT 681.26 633.40 13,317

Elevations are in feet above sea level. Discharges are in cubic feet per second and are reported at the end of the hour.